WetterOnline ( https://www.wetteronline.de )

Wetter aktuell Langenweißbach

Aktuelles Wetter: Fichtelberg (1215m)

6-stündlich | Neueste Meldungen
Ortszeit Temperatur Wetter
Mo, 10.05. 8:00 12.8° C leicht bewölkt
Mo, 10.05. 2:00 8.9° C bewölkt
So, 09.05. 20:00 14.7° C wolkig
So, 09.05. 14:00 16.8° C leicht bewölkt
So, 09.05. 8:00 7.1° C bedeckt
So, 09.05. 2:00 4.7° C wolkenlos
Sa, 08.05. 20:00 5.4° C bewölkt
Sa, 08.05. 14:00 3.3° C wolkig
Ortszeit Temperatur Wetter
Mo, 10.05. 11:00 16.2° C leicht bewölkt
Mo, 10.05. 10:50 16.2° C leicht bewölkt
Mo, 10.05. 10:40 15.8° C wolkenlos
Mo, 10.05. 10:30 15.7° C fast wolkenlos
Mo, 10.05. 10:20 15.7° C fast wolkenlos
Mo, 10.05. 10:10 15.2° C leicht bewölkt
Mo, 10.05. 10:00 14.4° C fast wolkenlos
Mo, 10.05. 9:30 15.6° C fast wolkenlos
Mo, 10.05. 9:00 15.1° C leicht bewölkt
Mo, 10.05. 8:30 12.9° C bedeckt
Mo, 10.05. 8:00 12.8° C leicht bewölkt
Ortszeit Relative Feuchte Sichtweite
Mo, 10.05. 8:00 56% 65 km
Mo, 10.05. 2:00 75% 65 km
So, 09.05. 20:00 60% >70 km
So, 09.05. 14:00 49% 65 km
So, 09.05. 8:00 59% >70 km
So, 09.05. 2:00 66% 55 km
Sa, 08.05. 20:00 58% >70 km
Sa, 08.05. 14:00 68% 60 km
Ortszeit Relative Feuchte Sichtweite
Mo, 10.05. 11:00 47% 45 km
Mo, 10.05. 10:50 47% -
Mo, 10.05. 10:40 47% -
Mo, 10.05. 10:30 48% 65 km
Mo, 10.05. 10:20 48% -
Mo, 10.05. 10:10 49% -
Mo, 10.05. 10:00 52% >70 km
Mo, 10.05. 9:30 46% 50 km
Mo, 10.05. 9:00 48% 60 km
Mo, 10.05. 8:30 53% 65 km
Mo, 10.05. 8:00 56% 65 km
Ortszeit Niederschlagsmenge Niederschlagsart
Mo, 10.05. 8:00 0.0 l/m2 in 12 Std. -
Mo, 10.05. 2:00 0.0 l/m2 in 6 Std. -
So, 09.05. 20:00 0.0 l/m2 in 12 Std. -
So, 09.05. 14:00 0.0 l/m2 in 6 Std. -
So, 09.05. 8:00 0.0 l/m2 in 12 Std. -
So, 09.05. 2:00 0.0 l/m2 in 6 Std. -
Sa, 08.05. 20:00 0.1 l/m2 in 12 Std. -
Sa, 08.05. 14:00 0.1 l/m2 in 6 Std. Schnee
Ortszeit Niederschlagsmenge Niederschlagsart
Mo, 10.05. 11:00 0.0 l/m2 in 1 Std. -
Mo, 10.05. 10:50 keine Meldung -
Mo, 10.05. 10:40 keine Meldung -
Mo, 10.05. 10:30 0.0 l/m2 in 1 Std. -
Mo, 10.05. 10:20 keine Meldung -
Mo, 10.05. 10:10 keine Meldung -
Mo, 10.05. 10:00 0.0 l/m2 in 1 Std. -
Mo, 10.05. 9:30 0.0 l/m2 in 1 Std. -
Mo, 10.05. 9:00 0.0 l/m2 in 1 Std. -
Mo, 10.05. 8:30 0.0 l/m2 in 1 Std. -
Mo, 10.05. 8:00 0.0 l/m2 in 1 Std. -
Ortszeit Stärke Spitze Richtung
km/h Bft. km/h Grad Sektor
Mo, 10.05. 8:00 50 6 56 220° SW
Mo, 10.05. 2:00 26 4 50 120° SO
So, 09.05. 20:00 35 5 48 140° SO
So, 09.05. 14:00 29 5 61 190° S
So, 09.05. 8:00 37 5 54 220° SW
So, 09.05. 2:00 41 6 48 220° SW
Sa, 08.05. 20:00 26 4 41 190° S
Sa, 08.05. 14:00 17 3 41 230° SW
Ortszeit Stärke Spitze Richtung
km/h Bft. km/h Grad Sektor
Mo, 10.05. 11:00 39 6 59 240° SW
Mo, 10.05. 10:50 39 6 - 240° SW
Mo, 10.05. 10:40 43 6 - 230° SW
Mo, 10.05. 10:30 40 6 58 240° SW
Mo, 10.05. 10:20 40 6 - 240° SW
Mo, 10.05. 10:10 36 5 - 230° SW
Mo, 10.05. 10:00 35 5 44 230° SW
Mo, 10.05. 9:30 39 6 44 230° SW
Mo, 10.05. 9:00 40 6 58 230° SW
Mo, 10.05. 8:30 47 6 58 230° SW
Mo, 10.05. 8:00 50 6 56 220° SW
Ortszeit Untergrenze Bedeckung Gattung
total tief tief mittel hoch
Mo, 10.05. 8:00 6300 m 7/8 1/8 - - -
Mo, 10.05. 2:00 6900 m 7/8 7/8 - - -
So, 09.05. 20:00 7500 m 8/8 0/8 - - -
So, 09.05. 14:00 9000 m 4/8 0/8 - - -
So, 09.05. 8:00 6000 m 8/8 8/8 - - -
So, 09.05. 2:00 - 0/8 0/8 - - -
Sa, 08.05. 20:00 1470 m 8/8 7/8 - - -
Sa, 08.05. 14:00 1050 m 6/8 6/8 - - -
Ortszeit Bedeckungsgrad in Achtel und Wolkenuntergrenze
Mo, 10.05. 11:00 4(8700m)
Mo, 10.05. 10:50 4(8700m)
Mo, 10.05. 10:40 keine Wolken
Mo, 10.05. 10:30 1(6000m)
Mo, 10.05. 10:20 1(6000m)
Mo, 10.05. 10:10 2(6000m)
Mo, 10.05. 10:00 1(6900m)
Mo, 10.05. 9:30 2(7500m)
Mo, 10.05. 9:00 4(7800m)
Mo, 10.05. 8:30 8(6900m)
Mo, 10.05. 8:00 1(6300m) 6(7200m) 7(7800m)
Ortszeit Stationsdruck (hPa) Tendenz (hPa in 3 Std.)
Mo, 10.05. 8:00 874 + 0,3
Mo, 10.05. 2:00 874 - 1,0
So, 09.05. 20:00 875 - 1,4
So, 09.05. 14:00 878 - 0,1
So, 09.05. 8:00 877 + 0,3
So, 09.05. 2:00 878 0,0
Sa, 08.05. 20:00 878 - 0,9
Sa, 08.05. 14:00 880 - 0,4
Ortszeit Stationsdruck (hPa) Tendenz (hPa in 3 Std.)
Mo, 10.05. 11:00 875 + 1,1
Mo, 10.05. 10:50 875 keine Meldung
Mo, 10.05. 10:40 875 keine Meldung
Mo, 10.05. 10:30 874 + 0,9
Mo, 10.05. 10:20 874 keine Meldung
Mo, 10.05. 10:10 874 keine Meldung
Mo, 10.05. 10:00 875 + 1,2
Mo, 10.05. 9:30 874 + 0,8
Mo, 10.05. 9:00 874 + 0,6
Mo, 10.05. 8:30 874 + 0,5
Mo, 10.05. 8:00 874 + 0,3
Ortszeit Schneehöhe (cm)
Mo, 10.05. 8:00 0
Mo, 10.05. 2:00 0
So, 09.05. 20:00 0
So, 09.05. 14:00 0
So, 09.05. 8:00 0
So, 09.05. 2:00 0
Sa, 08.05. 20:00 0
Sa, 08.05. 14:00 -
Ortszeit Schneehöhe (cm)
Mo, 10.05. 11:00 0
Mo, 10.05. 10:50 0
Mo, 10.05. 10:40 0
Mo, 10.05. 10:30 0
Mo, 10.05. 10:20 0
Mo, 10.05. 10:10 0
Mo, 10.05. 10:00 0
Mo, 10.05. 9:30 0
Mo, 10.05. 9:00 0
Mo, 10.05. 8:30 0
Mo, 10.05. 8:00 0
Link zu dieser Seite / Seite empfehlen

Das Wetter in ...